Time;durP1;ratioP1;P1;durP2;ratioP2;P2;SDS_P1;SDS_P2;PMS_P1;PMS_P2;Temp;Humidity;BMP_temperature;BMP_pressure;BME280_temperature;BME280_humidity;BME280_pressure;Samples;Min_cycle;Max_cycle;Signal;HPM_P1;HPM_P2
2022/05/12 00:01:27;;;;;;;6.70;1.67;;;10.30;99.90;;;;;;4997109;28;20132;-85
2022/05/12 00:03:52;;;;;;;3.38;1.10;;;10.40;99.90;;;;;;4996804;28;20050;-85
2022/05/12 00:06:18;;;;;;;5.65;1.00;;;10.30;99.90;;;;;;5001063;28;20049;-85
2022/05/12 00:08:44;;;;;;;5.13;1.00;;;10.30;99.90;;;;;;5033637;28;20050;-85
2022/05/12 00:11:09;;;;;;;3.53;0.90;;;10.30;99.90;;;;;;5001001;28;20045;-85
2022/05/12 00:13:35;;;;;;;2.83;0.85;;;10.30;99.90;;;;;;4997666;28;20469;-85
2022/05/12 00:16:01;;;;;;;5.18;1.13;;;10.20;99.90;;;;;;4997330;28;20445;-85
2022/05/12 00:18:27;;;;;;;5.65;1.30;;;10.40;99.90;;;;;;4996853;28;20426;-84
2022/05/12 00:20:53;;;;;;;5.90;1.10;;;10.20;99.90;;;;;;4980377;28;20053;-85
2022/05/12 00:23:22;;;;;;;3.70;1.00;;;10.30;99.90;;;;;;4980022;28;20140;-86
2022/05/12 00:25:50;;;;;;;2.85;1.02;;;10.10;99.90;;;;;;4996428;28;20056;-85
2022/05/12 00:28:18;;;;;;;7.25;1.20;;;10.30;99.90;;;;;;4996395;28;20053;-85
2022/05/12 00:30:45;;;;;;;4.80;1.10;;;10.10;99.90;;;;;;4996328;28;20062;-85
2022/05/12 00:33:12;;;;;;;5.07;1.10;;;10.20;99.90;;;;;;5013141;28;20076;-85
2022/05/12 00:35:39;;;;;;;5.00;1.15;;;10.10;99.90;;;;;;5003982;28;20029;-85
2022/05/12 00:38:04;;;;;;;4.00;1.23;;;10.10;99.90;;;;;;5017851;28;20058;-84
2022/05/12 00:40:30;;;;;;;4.25;1.23;;;10.10;99.90;;;;;;5017308;28;20045;-85
2022/05/12 00:43:06;;;;;;;6.03;1.13;;;10.10;99.90;;;;;;5023861;28;20081;-85
2022/05/12 00:45:38;;;;;;;4.07;1.20;;;10.00;99.90;;;;;;4996805;28;20128;-85
2022/05/12 00:48:05;;;;;;;3.72;1.30;;;10.00;99.90;;;;;;4996643;28;20085;-84
2022/05/12 00:50:39;;;;;;;3.78;1.40;;;10.00;99.90;;;;;;4996495;28;20052;-85
2022/05/12 00:53:09;;;;;;;3.97;1.60;;;10.00;99.90;;;;;;4980365;28;20154;-85
2022/05/12 00:55:37;;;;;;;4.38;1.52;;;10.30;99.90;;;;;;4980249;28;20042;-85
2022/05/12 00:58:08;;;;;;;3.65;1.48;;;10.20;99.90;;;;;;4996912;28;20054;-85
2022/05/12 01:00:35;;;;;;;5.18;1.65;;;9.90;99.90;;;;;;4996450;28;20078;-85
2022/05/12 01:03:06;;;;;;;4.93;1.40;;;9.90;99.90;;;;;;4943202;28;1073373;-85
2022/05/12 01:05:31;;;;;;;3.75;1.63;;;9.90;99.90;;;;;;4996599;28;20093;-85
2022/05/12 01:07:58;;;;;;;4.43;1.60;;;9.90;99.90;;;;;;5014332;28;20069;-85
2022/05/12 01:10:25;;;;;;;4.47;1.73;;;9.90;99.90;;;;;;4996720;28;20060;-85
2022/05/12 01:12:52;;;;;;;4.63;1.95;;;9.80;99.90;;;;;;4997214;28;20042;-85
2022/05/12 01:15:20;;;;;;;3.80;1.88;;;10.00;99.90;;;;;;4997065;28;20393;-85
2022/05/12 01:17:47;;;;;;;4.88;1.80;;;9.80;99.90;;;;;;4980440;28;20499;-85
2022/05/12 01:20:13;;;;;;;5.38;1.85;;;9.80;99.90;;;;;;4981002;28;20085;-85
2022/05/12 01:22:56;;;;;;;8.50;2.17;;;9.80;99.90;;;;;;4996400;28;20034;-85
2022/05/12 01:25:26;;;;;;;7.53;2.10;;;9.70;99.90;;;;;;4996649;28;20046;-85
2022/05/12 01:27:51;;;;;;;6.47;2.28;;;9.70;99.90;;;;;;4996809;28;20519;-85
2022/05/12 01:30:20;;;;;;;6.47;2.42;;;9.70;99.90;;;;;;4996541;28;20042;-85
2022/05/12 01:32:48;;;;;;;7.03;2.40;;;9.70;99.90;;;;;;4996312;28;20050;-86
2022/05/12 01:35:17;;;;;;;8.15;2.17;;;9.70;99.90;;;;;;5013987;28;20034;-85
2022/05/12 01:37:45;;;;;;;6.72;2.42;;;10.00;99.90;;;;;;4980086;28;20116;-86
2022/05/12 01:40:14;;;;;;;8.45;2.95;;;10.20;99.90;;;;;;5033561;28;20034;-85
2022/05/12 01:42:40;;;;;;;9.43;2.22;;;9.70;99.90;;;;;;5015647;28;20045;-85
2022/05/12 01:45:08;;;;;;;8.50;2.30;;;10.10;99.90;;;;;;4996819;28;20050;-85
2022/05/12 01:47:37;;;;;;;6.68;2.10;;;9.70;99.90;;;;;;4996134;28;20053;-84
2022/05/12 01:50:04;;;;;;;9.98;2.40;;;9.70;99.90;;;;;;4996335;28;20093;-85
2022/05/12 01:52:30;;;;;;;8.45;2.80;;;9.70;99.90;;;;;;4996537;28;20145;-85
2022/05/12 01:54:56;;;;;;;9.02;2.50;;;9.90;99.90;;;;;;4999462;28;20521;-86
2022/05/12 01:57:22;;;;;;;8.55;2.50;;;9.70;99.90;;;;;;4999882;28;20090;-85
2022/05/12 01:59:49;;;;;;;10.13;2.65;;;9.60;99.90;;;;;;5000063;28;20042;-85
2022/05/12 02:02:14;;;;;;;6.43;2.53;;;9.60;99.90;;;;;;4999525;28;20062;-85
2022/05/12 02:04:41;;;;;;;12.18;2.78;;;9.60;99.90;;;;;;4983698;28;20378;-85
2022/05/12 02:07:07;;;;;;;5.85;2.40;;;9.60;99.90;;;;;;4983745;28;20120;-85
2022/05/12 02:09:33;;;;;;;6.30;2.25;;;9.60;99.90;;;;;;4999841;28;20054;-85
2022/05/12 02:11:58;;;;;;;9.35;2.65;;;9.90;99.90;;;;;;4999681;28;20046;-85
2022/05/12 02:14:24;;;;;;;9.07;3.03;;;9.70;99.90;;;;;;5017365;28;20080;-85
2022/05/12 02:16:50;;;;;;;10.15;3.25;;;9.60;99.90;;;;;;4999920;28;20053;-85
2022/05/12 02:19:17;;;;;;;8.23;2.80;;;9.60;99.90;;;;;;4999548;28;20525;-85
2022/05/12 02:21:42;;;;;;;7.47;3.10;;;9.60;99.90;;;;;;5001559;28;20108;-85
2022/05/12 02:24:08;;;;;;;9.98;3.10;;;9.60;99.90;;;;;;5021436;28;20042;-85
2022/05/12 02:26:34;;;;;;;7.95;3.47;;;9.60;99.90;;;;;;5006982;28;20081;-85
2022/05/12 02:29:00;;;;;;;9.50;3.50;;;9.70;99.90;;;;;;4983629;28;20073;-85
2022/05/12 02:31:26;;;;;;;10.57;3.17;;;9.50;99.90;;;;;;4999400;28;20042;-85
2022/05/12 02:33:51;;;;;;;14.25;3.80;;;9.50;99.90;;;;;;4999216;28;20050;-85
2022/05/12 02:36:17;;;;;;;9.50;3.65;;;9.90;99.90;;;;;;4999364;28;20048;-85
2022/05/12 02:38:43;;;;;;;9.88;3.45;;;9.60;99.90;;;;;;4983121;28;20050;-85
2022/05/12 02:41:09;;;;;;;10.13;3.47;;;10.00;99.90;;;;;;4999047;28;20448;-85
2022/05/12 02:43:34;;;;;;;9.15;3.50;;;9.50;99.90;;;;;;4999048;28;20088;-85
2022/05/12 02:46:06;;;;;;;11.70;3.95;;;9.60;99.90;;;;;;4999151;28;20128;-85
2022/05/12 02:48:36;;;;;;;8.52;3.60;;;9.50;99.90;;;;;;4998847;28;20117;-85
2022/05/12 02:51:02;;;;;;;12.70;4.03;;;9.50;99.90;;;;;;4999192;28;20101;-85
2022/05/12 02:53:29;;;;;;;13.63;4.15;;;9.50;99.90;;;;;;4999196;28;20068;-84
2022/05/12 02:55:55;;;;;;;10.10;3.80;;;9.60;99.90;;;;;;4998938;28;20394;-85
2022/05/12 02:58:21;;;;;;;9.02;3.40;;;9.80;99.90;;;;;;4999203;28;20113;-85
2022/05/12 03:00:47;;;;;;;12.00;3.80;;;9.50;99.90;;;;;;4982222;28;20169;-85
2022/05/12 03:03:14;;;;;;;7.93;3.75;;;9.70;99.90;;;;;;4998746;28;20100;-85
2022/05/12 03:05:40;;;;;;;9.30;4.03;;;9.60;99.90;;;;;;4998450;28;20046;-85
2022/05/12 03:08:07;;;;;;;10.95;4.10;;;9.60;99.90;;;;;;4982485;28;20056;-85
2022/05/12 03:10:33;;;;;;;8.48;3.42;;;9.50;99.90;;;;;;4998671;28;20037;-85
2022/05/12 03:12:59;;;;;;;8.88;3.70;;;9.50;99.90;;;;;;4998590;28;20041;-85
2022/05/12 03:15:24;;;;;;;10.05;4.15;;;9.60;99.90;;;;;;4998634;28;20042;-85
2022/05/12 03:17:50;;;;;;;9.68;3.72;;;9.50;99.90;;;;;;5015943;28;20096;-86
2022/05/12 03:20:19;;;;;;;13.30;4.68;;;9.50;99.90;;;;;;4998685;28;20054;-85
2022/05/12 03:22:45;;;;;;;11.38;4.55;;;9.60;99.90;;;;;;4998275;28;20569;-85
2022/05/12 03:25:13;;;;;;;9.70;4.43;;;9.40;99.90;;;;;;4982267;28;20128;-85
2022/05/12 03:27:40;;;;;;;13.15;4.85;;;9.90;99.90;;;;;;4998411;28;20057;-85
2022/05/12 03:30:10;;;;;;;7.13;3.90;;;9.40;99.90;;;;;;5016085;28;20038;-85
2022/05/12 03:32:36;;;;;;;11.27;3.88;;;9.50;99.90;;;;;;4998131;28;20049;-85
2022/05/12 03:35:02;;;;;;;11.40;4.35;;;9.50;99.90;;;;;;5015894;28;20042;-85
2022/05/12 03:37:28;;;;;;;10.70;4.40;;;9.40;99.90;;;;;;4998143;28;20137;-86
2022/05/12 03:39:53;;;;;;;10.18;4.78;;;9.80;99.90;;;;;;4998428;28;20057;-85
2022/05/12 03:42:19;;;;;;;13.70;5.10;;;9.30;99.90;;;;;;4998210;28;20120;-85
2022/05/12 03:44:58;;;;;;;13.30;5.07;;;9.40;99.90;;;;;;4981776;28;20045;-85
2022/05/12 03:47:27;;;;;;;12.18;5.63;;;9.40;99.90;;;;;;4998039;28;20049;-85
2022/05/12 03:50:01;;;;;;;16.02;5.38;;;9.50;99.90;;;;;;4998122;28;20197;-85
2022/05/12 03:52:28;;;;;;;11.98;5.88;;;9.80;99.90;;;;;;4997653;28;20064;-85
2022/05/12 03:54:54;;;;;;;16.30;5.82;;;9.50;99.90;;;;;;5015636;28;20049;-85
2022/05/12 03:57:21;;;;;;;13.73;5.80;;;9.50;99.90;;;;;;4998469;28;20497;-85
2022/05/12 03:59:48;;;;;;;16.83;6.32;;;9.70;99.90;;;;;;4997756;28;20213;-85
2022/05/12 04:02:15;;;;;;;16.63;5.72;;;9.80;99.90;;;;;;4997528;28;20540;-85
2022/05/12 04:04:42;;;;;;;14.70;5.53;;;10.10;99.90;;;;;;4997665;28;20061;-85
2022/05/12 04:07:11;;;;;;;13.55;5.60;;;9.60;99.90;;;;;;4997702;28;20088;-86
2022/05/12 04:09:37;;;;;;;15.82;6.05;;;9.60;99.90;;;;;;4997478;28;20133;-85
2022/05/12 04:12:05;;;;;;;17.27;5.93;;;9.60;99.90;;;;;;4997443;28;20134;-85
2022/05/12 04:14:31;;;;;;;15.52;6.30;;;9.60;99.90;;;;;;4997598;28;20493;-85
2022/05/12 04:16:58;;;;;;;17.00;7.10;;;9.60;99.90;;;;;;4980532;28;20132;-85
2022/05/12 04:19:24;;;;;;;13.65;5.63;;;10.10;99.90;;;;;;4997482;28;20045;-85
2022/05/12 04:21:52;;;;;;;13.57;6.55;;;9.80;99.90;;;;;;4997363;28;20049;-85
2022/05/12 04:24:18;;;;;;;17.92;6.43;;;10.10;99.90;;;;;;4981663;28;20114;-84
2022/05/12 04:26:44;;;;;;;12.65;6.15;;;9.80;99.90;;;;;;4997450;28;20125;-85
2022/05/12 04:29:11;;;;;;;13.45;6.32;;;10.00;99.90;;;;;;4997135;28;20453;-84
2022/05/12 04:31:37;;;;;;;14.52;6.40;;;9.90;99.90;;;;;;4997022;28;20057;-85
2022/05/12 04:36:47;;;;;;;16.38;6.90;;;10.30;99.90;;;;;;5002745;28;20054;-85
2022/05/12 04:39:13;;;;;;;15.18;6.43;;;10.40;99.90;;;;;;5021013;28;20046;-85
2022/05/12 04:41:39;;;;;;;16.95;6.28;;;9.90;99.90;;;;;;4984753;28;20054;-85
2022/05/12 04:44:06;;;;;;;15.77;6.40;;;10.00;99.90;;;;;;4996920;28;20049;-85
2022/05/12 04:46:34;;;;;;;15.80;6.88;;;10.00;99.90;;;;;;4996787;28;20569;-85
2022/05/12 04:49:01;;;;;;;15.30;6.25;;;10.00;99.90;;;;;;4997136;28;20054;-85
2022/05/12 04:51:27;;;;;;;17.73;6.72;;;10.00;99.90;;;;;;4998491;28;20045;-85
2022/05/12 04:53:52;;;;;;;16.27;6.00;;;10.70;99.90;;;;;;4980735;28;20042;-85
2022/05/12 04:56:18;;;;;;;16.00;7.07;;;10.10;99.90;;;;;;4980930;28;20048;-85
2022/05/12 04:58:44;;;;;;;15.68;6.53;;;10.70;99.90;;;;;;4980420;28;20042;-85
2022/05/12 05:01:10;;;;;;;14.73;6.70;;;10.40;99.90;;;;;;4996565;28;20058;-85
2022/05/12 05:03:35;;;;;;;13.45;6.30;;;10.30;99.90;;;;;;4996480;28;20516;-85
2022/05/12 05:06:01;;;;;;;14.57;5.88;;;10.20;99.90;;;;;;4996869;28;20049;-85
2022/05/12 05:08:27;;;;;;;15.15;6.35;;;10.90;99.90;;;;;;4996606;28;20049;-85
2022/05/12 05:10:53;;;;;;;15.55;6.32;;;10.40;99.90;;;;;;5014112;28;20050;-84
2022/05/12 05:13:21;;;;;;;13.38;6.30;;;10.50;99.90;;;;;;4996686;28;20042;-85
2022/05/12 05:15:48;;;;;;;16.40;6.30;;;10.50;99.90;;;;;;5014252;28;20038;-84
2022/05/12 05:18:15;;;;;;;12.43;5.32;;;10.60;99.90;;;;;;4980385;28;20485;-84
2022/05/12 05:20:42;;;;;;;16.85;5.38;;;10.60;99.90;;;;;;4996528;28;20042;-84
2022/05/12 05:23:08;;;;;;;10.10;5.15;;;10.80;99.90;;;;;;4996773;28;20426;-85
2022/05/12 05:25:34;;;;;;;11.95;5.13;;;10.90;99.90;;;;;;4996405;28;20088;-84
2022/05/12 05:27:59;;;;;;;11.68;4.65;;;11.00;99.90;;;;;;5012940;28;20111;-85
2022/05/12 05:30:26;;;;;;;14.95;4.72;;;11.50;99.90;;;;;;4979905;28;20053;-85
2022/05/12 05:32:53;;;;;;;14.82;4.35;;;11.20;99.90;;;;;;4996240;28;20092;-85
2022/05/12 05:35:20;;;;;;;11.63;4.30;;;11.20;99.90;;;;;;5013960;28;20045;-85
2022/05/12 05:37:47;;;;;;;12.45;4.47;;;11.30;99.90;;;;;;4998046;28;20397;-85
2022/05/12 05:40:17;;;;;;;10.93;4.28;;;11.40;99.90;;;;;;5015251;28;20114;-85
2022/05/12 05:42:44;;;;;;;14.15;4.35;;;11.50;99.90;;;;;;5010847;28;20049;-85
2022/05/12 05:45:15;;;;;;;18.20;4.25;;;11.60;99.90;;;;;;4980146;28;20053;-85
2022/05/12 05:47:44;;;;;;;11.48;4.20;;;11.70;99.90;;;;;;4996886;28;20108;-86
2022/05/12 05:50:10;;;;;;;13.77;3.83;;;11.80;99.90;;;;;;4996204;28;20129;-84
2022/05/12 05:55:20;;;;;;;10.57;3.75;;;11.90;99.90;;;;;;5013920;28;20061;-84
2022/05/12 05:57:46;;;;;;;12.63;3.78;;;12.00;99.90;;;;;;4996270;28;20375;-84
2022/05/12 06:00:12;;;;;;;12.10;4.28;;;12.30;99.90;;;;;;4996193;28;20072;-84
2022/05/12 06:02:38;;;;;;;10.23;3.28;;;12.20;99.90;;;;;;5013341;28;20401;-85
2022/05/12 06:05:05;;;;;;;13.38;2.90;;;12.30;99.90;;;;;;4996363;28;20393;-84
2022/05/12 06:07:34;;;;;;;10.20;2.92;;;12.40;99.90;;;;;;4996286;28;20077;-85
2022/05/12 06:10:00;;;;;;;9.98;3.15;;;12.40;99.90;;;;;;4979783;28;20042;-85
2022/05/12 06:12:25;;;;;;;9.00;2.83;;;12.50;99.90;;;;;;4995887;28;20046;-85
2022/05/12 06:14:51;;;;;;;16.23;3.10;;;12.70;99.90;;;;;;4996008;28;20045;-85
2022/05/12 06:17:16;;;;;;;11.63;2.65;;;12.70;99.90;;;;;;5013878;28;20132;-84
2022/05/12 06:19:42;;;;;;;10.32;2.95;;;12.80;99.90;;;;;;5013564;28;20160;-85
2022/05/12 06:22:08;;;;;;;10.80;2.88;;;12.80;99.90;;;;;;4979857;28;20050;-85
2022/05/12 06:24:34;;;;;;;9.68;2.50;;;13.00;99.90;;;;;;4995883;28;20057;-84
2022/05/12 06:27:00;;;;;;;9.88;2.90;;;13.10;99.90;;;;;;4995788;28;20041;-85
2022/05/12 06:29:26;;;;;;;8.13;2.50;;;13.20;99.90;;;;;;4996008;28;20038;-85
2022/05/12 06:31:52;;;;;;;11.60;2.70;;;13.20;99.90;;;;;;4996045;28;20049;-85
2022/05/12 06:34:17;;;;;;;12.77;3.22;;;13.20;99.90;;;;;;4995872;28;20397;-85
2022/05/12 06:36:44;;;;;;;8.00;2.60;;;13.30;99.90;;;;;;5013425;28;20049;-84
2022/05/12 06:39:10;;;;;;;10.30;2.60;;;13.40;99.90;;;;;;4995727;28;20077;-84
2022/05/12 06:41:36;;;;;;;9.98;2.63;;;13.40;99.90;;;;;;4999105;28;20144;-84
2022/05/12 06:44:04;;;;;;;8.18;3.22;;;13.60;99.90;;;;;;5017053;28;20050;-84
2022/05/12 06:46:31;;;;;;;8.02;2.90;;;13.60;99.90;;;;;;4999096;28;20497;-85
2022/05/12 06:48:57;;;;;;;8.27;2.25;;;13.90;99.90;;;;;;5016664;28;20042;-84
2022/05/12 06:51:23;;;;;;;14.93;2.80;;;13.80;99.90;;;;;;5003126;28;20050;-85
2022/05/12 06:53:48;;;;;;;9.88;2.70;;;13.90;99.90;;;;;;5006032;28;20108;-86
2022/05/12 06:56:14;;;;;;;8.80;2.60;;;14.00;99.90;;;;;;4998915;28;20501;-85
2022/05/12 06:58:40;;;;;;;10.70;2.97;;;14.20;99.90;;;;;;4998887;28;20077;-85
2022/05/12 07:01:06;;;;;;;9.65;2.80;;;14.40;99.90;;;;;;4998726;28;20042;-85
2022/05/12 07:03:32;;;;;;;8.13;2.70;;;14.30;99.90;;;;;;4998969;28;20060;-84
2022/05/12 07:05:58;;;;;;;8.93;2.50;;;14.40;99.90;;;;;;4999001;28;20042;-85
2022/05/12 07:08:26;;;;;;;5.60;2.25;;;14.50;99.90;;;;;;4998765;28;20390;-85
2022/05/12 07:10:52;;;;;;;8.15;2.42;;;14.50;99.90;;;;;;4998581;28;20038;-85
2022/05/12 07:13:21;;;;;;;11.00;2.70;;;14.50;99.90;;;;;;4998844;28;20050;-84
2022/05/12 07:15:49;;;;;;;12.88;3.10;;;14.40;99.90;;;;;;4998482;28;20417;-85
2022/05/12 07:18:19;;;;;;;8.85;2.35;;;14.50;99.90;;;;;;4998829;28;20053;-85
2022/05/12 07:28:57;;;;;;;9.50;2.40;;;14.80;99.90;;;;;;5015940;28;20060;-85
2022/05/12 07:31:23;;;;;;;8.95;2.30;;;14.80;99.90;;;;;;4982398;28;20046;-85
2022/05/12 07:33:49;;;;;;;8.32;2.28;;;14.90;99.90;;;;;;4998150;28;20081;-84
2022/05/12 07:36:21;;;;;;;7.18;2.20;;;14.90;99.90;;;;;;5015649;28;20049;-84
2022/05/12 07:38:47;;;;;;;9.45;2.55;;;15.00;99.90;;;;;;4998425;28;20381;-84
2022/05/12 07:41:14;;;;;;;8.40;2.67;;;15.20;99.90;;;;;;4981963;28;20053;-84
2022/05/12 07:43:41;;;;;;;6.40;2.22;;;15.30;99.90;;;;;;5015787;28;20033;-85
2022/05/12 07:46:08;;;;;;;11.77;2.20;;;15.40;99.90;;;;;;5015689;28;20086;-84
2022/05/12 07:48:34;;;;;;;6.00;2.28;;;15.40;99.90;;;;;;5003949;28;20030;-85
2022/05/12 07:51:01;;;;;;;7.20;2.38;;;15.50;99.90;;;;;;5022799;28;20065;-84
2022/05/12 07:53:27;;;;;;;8.60;2.60;;;15.60;99.90;;;;;;5005332;28;20053;-84
2022/05/12 07:55:53;;;;;;;9.95;2.83;;;15.70;99.90;;;;;;5038071;28;20030;-85
2022/05/12 07:58:18;;;;;;;5.65;1.88;;;15.80;99.90;;;;;;5039593;28;20034;-85
2022/05/12 08:00:45;;;;;;;7.60;2.20;;;16.00;99.90;;;;;;5004530;28;20393;-85
2022/05/12 08:03:11;;;;;;;8.48;2.15;;;15.90;99.90;;;;;;5001810;28;20046;-85
2022/05/12 08:05:38;;;;;;;7.30;2.13;;;16.00;99.90;;;;;;4999238;28;20053;-84
2022/05/12 08:08:05;;;;;;;7.38;2.25;;;16.10;99.90;;;;;;4999081;28;20049;-84
2022/05/12 08:10:31;;;;;;;9.65;2.90;;;16.00;99.90;;;;;;5016290;28;20052;-85
2022/05/12 08:12:56;;;;;;;7.68;2.13;;;16.00;99.90;;;;;;4998594;28;20046;-86
2022/05/12 08:15:25;;;;;;;8.82;3.08;;;16.10;99.90;;;;;;4982073;28;20405;-84
2022/05/12 08:17:57;;;;;;;6.53;2.03;;;16.20;99.90;;;;;;4998660;28;20045;-85
2022/05/12 08:20:23;;;;;;;8.93;2.45;;;16.40;99.90;;;;;;5017502;28;20056;-84
2022/05/12 08:22:50;;;;;;;12.30;3.47;;;16.40;99.90;;;;;;5016736;28;20053;-84
2022/05/12 08:25:16;;;;;;;8.48;2.40;;;16.40;99.90;;;;;;4999360;28;20037;-85
2022/05/12 08:27:42;;;;;;;8.82;2.90;;;16.40;99.90;;;;;;4998362;28;20493;-85
2022/05/12 08:30:11;;;;;;;11.88;2.80;;;16.20;99.90;;;;;;4997844;28;20042;-85
2022/05/12 08:32:37;;;;;;;6.70;2.13;;;16.20;99.90;;;;;;4997497;28;20141;-85
2022/05/12 08:35:04;;;;;;;9.60;2.28;;;16.20;99.90;;;;;;4997589;28;20140;-85
2022/05/12 08:37:30;;;;;;;6.65;2.13;;;16.40;99.90;;;;;;4981279;28;20389;-85
2022/05/12 08:39:56;;;;;;;7.70;2.30;;;16.50;99.90;;;;;;5014752;28;20049;-85
2022/05/12 08:42:37;;;;;;;9.10;2.40;;;16.60;99.90;;;;;;4997297;28;20091;-85
2022/05/12 08:45:08;;;;;;;8.20;2.20;;;16.70;99.90;;;;;;4997336;28;20053;-85
2022/05/12 08:47:37;;;;;;;5.38;1.92;;;16.80;99.90;;;;;;4996798;28;20053;-85
2022/05/12 08:50:06;;;;;;;6.00;2.30;;;16.90;99.90;;;;;;4980550;28;20125;-85
2022/05/12 08:52:41;;;;;;;5.80;2.60;;;17.10;99.90;;;;;;4996719;28;20053;-85
2022/05/12 08:55:16;;;;;;;7.07;2.30;;;17.20;99.90;;;;;;4996766;28;20481;-85
2022/05/12 08:57:47;;;;;;;7.38;2.30;;;17.20;99.90;;;;;;5014453;28;20049;-85
2022/05/12 09:00:15;;;;;;;6.32;2.20;;;17.30;99.90;;;;;;4980663;28;20564;-88
2022/05/12 09:02:48;;;;;;;10.95;3.20;;;17.20;99.90;;;;;;4996243;28;20386;-85
2022/05/12 09:05:18;;;;;;;10.10;3.05;;;17.20;99.90;;;;;;4996456;28;20065;-85
2022/05/12 09:08:06;;;;;;;7.93;2.08;;;17.20;99.90;;;;;;4999594;28;20139;-85
2022/05/12 09:10:41;;;;;;;7.32;2.42;;;17.30;99.90;;;;;;4998395;28;20069;-86
2022/05/12 09:13:26;;;;;;;8.85;2.40;;;17.40;99.90;;;;;;4980119;28;20128;-87
2022/05/12 09:16:26;;;;;;;11.18;2.17;;;17.40;99.90;;;;;;4980785;28;20103;-86
2022/05/12 09:18:53;;;;;;;6.70;1.95;;;17.70;99.90;;;;;;4989917;28;20062;-86
2022/05/12 09:21:25;;;;;;;7.88;2.03;;;18.00;99.90;;;;;;4996326;28;20128;-88
2022/05/12 09:23:50;;;;;;;7.28;1.90;;;18.10;99.90;;;;;;5014021;28;20052;-86
2022/05/12 09:26:38;;;;;;;5.03;2.00;;;18.10;99.90;;;;;;5014050;28;20041;-86
2022/05/12 09:29:16;;;;;;;4.90;1.65;;;18.20;99.90;;;;;;4995996;28;20053;-86
2022/05/12 09:31:47;;;;;;;7.00;2.00;;;18.30;99.90;;;;;;4979918;28;20085;-86
2022/05/12 09:34:38;;;;;;;4.45;1.63;;;18.50;99.90;;;;;;4979989;28;20042;-85
2022/05/12 09:37:12;;;;;;;5.68;1.52;;;18.30;99.90;;;;;;4953299;29;20142;-85
2022/05/12 09:39:41;;;;;;;7.90;2.05;;;18.00;99.90;;;;;;4953369;29;20063;-84
2022/05/12 09:42:15;;;;;;;5.28;1.42;;;18.10;99.90;;;;;;4939964;29;20070;-85
2022/05/12 09:44:52;;;;;;;6.22;1.83;;;17.90;99.90;;;;;;4953071;29;20051;-85
2022/05/12 09:47:18;;;;;;;5.28;1.33;;;17.80;99.90;;;;;;4934198;29;20055;-86
2022/05/12 09:49:46;;;;;;;6.40;1.52;;;17.60;99.90;;;;;;4937729;29;20043;-86
2022/05/12 09:52:18;;;;;;;4.18;1.52;;;17.70;99.90;;;;;;4921500;29;20134;-87
2022/05/12 09:54:44;;;;;;;5.30;1.50;;;17.60;99.90;;;;;;4921492;29;20055;-86
2022/05/12 09:57:18;;;;;;;4.65;1.25;;;17.70;99.90;;;;;;4953342;29;20050;-87
2022/05/12 09:59:53;;;;;;;6.45;1.33;;;17.70;99.90;;;;;;4937188;29;20086;-85
2022/05/12 10:07:53;;;;;;;3.45;1.25;;;17.70;99.90;;;;;;4937146;29;20515;-85
2022/05/12 10:08:24;;;;;;;5.35;1.50;;;17.90;99.90;;;;;;4917930;29;20013;-85
2022/05/12 10:11:00;;;;;;;4.82;1.58;;;18.10;99.90;;;;;;4912985;29;20505;-88
2022/05/12 10:13:31;;;;;;;4.97;1.60;;;18.10;99.90;;;;;;4912905;29;20123;-86
2022/05/12 10:15:58;;;;;;;4.25;1.63;;;18.30;99.90;;;;;;4920086;29;20056;-86
2022/05/12 10:18:55;;;;;;;5.22;1.50;;;18.30;99.90;;;;;;4902986;29;20501;-86
2022/05/12 10:21:28;;;;;;;5.40;1.40;;;18.20;99.90;;;;;;4902964;29;20048;-85
2022/05/12 10:24:32;;;;;;;5.50;1.85;;;18.50;99.90;;;;;;4903086;29;20448;-85
2022/05/12 10:27:13;;;;;;;3.35;1.20;;;18.50;99.90;;;;;;4918652;29;20119;-87
2022/05/12 10:30:03;;;;;;;7.07;1.45;;;18.60;99.90;;;;;;4903030;29;20048;-88
2022/05/12 10:32:46;;;;;;;4.28;1.50;;;18.70;99.90;;;;;;4902426;29;20063;-85
2022/05/12 10:35:32;;;;;;;6.38;1.48;;;18.80;99.90;;;;;;4902859;29;20044;-87
2022/05/12 10:38:27;;;;;;;3.08;1.50;;;18.80;99.90;;;;;;4902428;29;20059;-87
2022/05/12 10:41:02;;;;;;;6.43;1.20;;;18.90;99.90;;;;;;4846744;29;20057;-87
2022/05/12 10:43:46;;;;;;;5.63;1.70;;;19.10;99.90;;;;;;4846885;29;20053;-88
2022/05/12 10:46:15;;;;;;;5.65;1.70;;;19.20;99.90;;;;;;4880282;29;20111;-87
2022/05/12 10:48:54;;;;;;;3.65;1.30;;;19.40;99.90;;;;;;4899395;29;20075;-87
2022/05/12 10:51:30;;;;;;;5.88;1.92;;;19.40;99.90;;;;;;4899114;29;20103;-87
2022/05/12 10:53:58;;;;;;;4.75;1.60;;;19.30;99.90;;;;;;4899120;29;20048;-87
2022/05/12 10:56:28;;;;;;;4.45;1.42;;;19.20;99.90;;;;;;4899256;29;20045;-87
2022/05/12 10:58:57;;;;;;;3.45;1.40;;;19.40;99.90;;;;;;4899151;29;20060;-86
2022/05/12 11:01:30;;;;;;;4.10;0.95;;;19.40;99.90;;;;;;4898895;29;20056;-86
2022/05/12 11:04:28;;;;;;;6.88;1.23;;;19.60;99.90;;;;;;4867722;29;20628;-88
2022/05/12 11:06:59;;;;;;;2.72;1.10;;;19.80;99.90;;;;;;4899007;29;20060;-88
2022/05/12 11:09:35;;;;;;;7.60;1.50;;;19.70;99.90;;;;;;4899033;29;20053;-87
2022/05/12 11:12:39;;;;;;;5.03;1.48;;;19.90;99.90;;;;;;4899047;29;20179;-86
2022/05/12 11:15:13;;;;;;;4.35;1.45;;;19.80;99.90;;;;;;4883393;29;20045;-88
2022/05/12 11:17:52;;;;;;;3.78;1.60;;;19.90;99.90;;;;;;4937053;28;20058;-87
2022/05/12 11:20:32;;;;;;;11.75;1.90;;;20.00;99.90;;;;;;4979145;28;20050;-86
2022/05/12 11:23:23;;;;;;;5.72;1.20;;;20.30;99.90;;;;;;4980181;28;20053;-87
2022/05/12 11:26:04;;;;;;;4.57;1.13;;;20.40;99.90;;;;;;4984030;28;20081;-87
2022/05/12 11:31:40;;;;;;;4.75;1.25;;;20.70;99.90;;;;;;4996112;28;20046;-87
2022/05/12 11:34:14;;;;;;;5.43;1.40;;;20.50;99.00;;;;;;4978831;28;20054;-87
2022/05/12 11:36:43;;;;;;;5.97;1.35;;;20.40;99.10;;;;;;4962760;28;20049;-87
2022/05/12 11:39:31;;;;;;;3.58;1.25;;;20.30;99.50;;;;;;4978760;28;20039;-88
2022/05/12 11:42:25;;;;;;;3.03;1.30;;;20.40;97.20;;;;;;4979465;28;20074;-86
2022/05/12 11:45:02;;;;;;;3.85;1.23;;;20.40;98.80;;;;;;4978837;28;20050;-87
2022/05/12 11:47:46;;;;;;;3.65;1.50;;;20.60;97.40;;;;;;4978565;28;20050;-86
2022/05/12 11:50:42;;;;;;;4.60;1.38;;;20.90;98.90;;;;;;4978618;28;20073;-86
2022/05/12 11:53:16;;;;;;;5.20;1.30;;;20.80;95.50;;;;;;4995971;28;20046;-86
2022/05/12 11:56:01;;;;;;;3.90;1.30;;;20.80;97.50;;;;;;4978680;28;20054;-86
2022/05/12 11:58:45;;;;;;;3.75;1.20;;;21.00;97.50;;;;;;4996117;28;20133;-89
2022/05/12 12:01:20;;;;;;;4.55;1.10;;;21.10;96.00;;;;;;4978310;28;20051;-88
2022/05/12 12:03:45;;;;;;;3.78;1.17;;;20.90;93.60;;;;;;4978550;28;20121;-88
2022/05/12 12:06:29;;;;;;;2.92;0.90;;;21.00;95.70;;;;;;4995936;28;20470;-87
2022/05/12 12:08:54;;;;;;;4.43;1.20;;;21.00;95.30;;;;;;4978463;28;20117;-88
2022/05/12 12:11:22;;;;;;;8.60;1.60;;;20.90;94.80;;;;;;4978449;28;20042;-88
2022/05/12 12:13:59;;;;;;;3.17;1.15;;;21.00;95.10;;;;;;4995641;28;20075;-89
2022/05/12 12:17:04;;;;;;;4.78;1.50;;;21.10;95.40;;;;;;4978458;28;20042;-87
2022/05/12 12:19:47;;;;;;;4.63;1.50;;;21.50;95.40;;;;;;4995529;28;20394;-86
2022/05/12 12:22:21;;;;;;;5.00;1.10;;;21.70;95.20;;;;;;4977963;28;20097;-88
2022/05/12 12:25:01;;;;;;;5.97;1.20;;;21.60;92.90;;;;;;4978170;28;20046;-88
2022/05/12 12:27:32;;;;;;;4.43;1.30;;;21.50;93.00;;;;;;4978017;28;20050;-88
2022/05/12 12:30:17;;;;;;;4.18;1.30;;;21.70;93.90;;;;;;4995215;28;20420;-89
2022/05/12 12:32:47;;;;;;;3.35;1.20;;;21.70;91.90;;;;;;4977526;28;20050;-88
2022/05/12 12:35:21;;;;;;;4.38;1.52;;;21.60;92.00;;;;;;4995308;28;20042;-89
2022/05/12 12:37:50;;;;;;;3.55;1.13;;;21.50;91.70;;;;;;4977324;28;20056;-89
2022/05/12 12:40:43;;;;;;;4.00;1.40;;;21.50;89.50;;;;;;4977978;28;20050;-87
2022/05/12 12:43:32;;;;;;;3.58;1.15;;;21.20;86.20;;;;;;4977732;28;20437;-87
2022/05/12 12:45:58;;;;;;;4.68;1.30;;;21.40;86.10;;;;;;4961524;28;20064;-88
2022/05/12 12:48:38;;;;;;;4.35;1.30;;;21.00;88.30;;;;;;4977641;28;20145;-88
2022/05/12 12:51:03;;;;;;;3.33;1.02;;;21.30;88.30;;;;;;4995032;28;20046;-86
2022/05/12 12:56:33;;;;;;;2.83;1.20;;;21.30;85.80;;;;;;4994844;28;20129;-89
2022/05/12 12:59:19;;;;;;;3.67;1.10;;;21.50;85.60;;;;;;4977703;28;20046;-85
2022/05/12 13:02:01;;;;;;;4.20;1.10;;;21.50;81.90;;;;;;4994456;28;20084;-86
2022/05/12 13:04:35;;;;;;;8.30;1.88;;;21.10;83.90;;;;;;4977077;28;20050;-85
2022/05/12 13:07:10;;;;;;;5.35;1.20;;;21.10;87.40;;;;;;4977308;28;20054;-86
2022/05/12 13:09:42;;;;;;;4.72;1.05;;;21.20;83.20;;;;;;4977445;28;20137;-87
2022/05/12 13:12:12;;;;;;;4.50;1.30;;;21.50;84.30;;;;;;4976985;28;20046;-87
2022/05/12 13:14:39;;;;;;;4.15;1.20;;;21.40;84.80;;;;;;4977005;28;20038;-88
2022/05/12 13:17:06;;;;;;;3.58;1.20;;;21.40;84.30;;;;;;4977073;28;20046;-87
2022/05/12 13:19:38;;;;;;;4.25;1.00;;;21.10;83.90;;;;;;4977291;28;20390;-87
2022/05/12 13:22:04;;;;;;;4.35;1.33;;;20.70;85.40;;;;;;4977067;28;20054;-86
2022/05/12 13:24:32;;;;;;;3.80;1.30;;;20.40;84.60;;;;;;4994436;28;20054;-88